Running Page

我用 App 记录自己跑步 8 年了,下面列表展示的是 2024 的数据


2024 Journey
82 Runs
608.9 KM
5'48" Avg Pace
5 day Streak
155 Avg Heart Rate

2023 Journey
187 Runs
1,149.8 KM
6'09" Avg Pace
6 day Streak
155 Avg Heart Rate

2022 Journey
250 Runs
1,066.6 KM
6'04" Avg Pace
9 day Streak

2021 Journey
220 Runs
904.4 KM
6'41" Avg Pace
10 day Streak

2020 Journey
73 Runs
304.2 KM
7'35" Avg Pace
11 day Streak

2019 Journey
46 Runs
264.1 KM
5'56" Avg Pace
5 day Streak
158 Avg Heart Rate

2018 Journey
35 Runs
217.6 KM
6'11" Avg Pace
5 day Streak
160 Avg Heart Rate

2017 Journey
14 Runs
49 KM
6'32" Avg Pace
2 day Streak

Total Journey
907 Runs
4,564.5 KM
6'17" Avg Pace
11 day Streak
156 Avg Heart Rate

KMPaceBPMTimeDate
清晨跑步8.035'41"15545min2024-06-19 06:09:55
清晨跑步5.225'44"14729min2024-06-18 06:14:55
清晨跑步8.215'40"14846min2024-06-17 06:00:04
清晨跑步8.035'39"15245min2024-06-14 06:11:13
午后跑步8.215'53"15348min2024-06-12 18:12:12
清晨跑步6.026'50"14741min2024-06-10 08:11:52
午后跑步8.245'48"15047min2024-06-07 18:11:59
午后跑步8.315'51"13848min2024-06-05 18:15:43
午后跑步8.015'53"15047min2024-06-03 18:17:04
清晨跑步8.025'46"15446min2024-06-02 09:23:18
午后跑步5.065'48"15429min2024-05-31 18:32:51
午后跑步3.185'45"16818min2024-05-31 18:13:55
午后跑步8.115'53"15147min2024-05-30 18:04:52
午后跑步8.355'53"15049min2024-05-27 18:10:10
傍晚跑步5.036'20"13531min2024-05-26 21:44:26
午后跑步8.135'29"15044min2024-05-20 18:06:30
清晨跑步5.056'01"14930min2024-05-19 08:23:13
午后跑步8.265'52"14848min2024-05-17 18:14:07
午后跑步5.016'28"14632min2024-05-16 18:10:45
午后跑步8.315'50"15648min2024-05-13 18:07:27
清晨跑步5.155'21"13527min2024-05-12 08:22:37
午后跑步8.325'38"16046min2024-05-11 18:16:04
午后跑步8.315'48"15648min2024-05-08 18:12:28
午后跑步5.235'38"15029min2024-05-07 18:13:01
午后跑步8.325'44"16147min2024-05-06 18:14:06
清晨跑步3.115'54"13018min2024-05-03 07:08:07
清晨跑步8.115'12"16842min2024-05-01 07:45:42
午后跑步8.235'38"15346min2024-04-29 18:18:48
午后跑步8.025'51"14747min2024-04-28 18:12:13
午后跑步8.145'41"14046min2024-04-23 18:15:30
午后跑步9.115'38"15851min2024-04-21 18:05:56
午后跑步8.425'48"15348min2024-04-17 18:18:59
午后跑步8.305'34"15346min2024-04-15 18:22:08
午间跑步5.025'55"15029min2024-04-14 11:56:47
午后跑步8.305'36"15246min2024-04-11 18:20:39
午后跑步8.255'44"14047min2024-04-09 18:18:19
午后跑步8.326'03"14850min2024-04-07 18:15:03
傍晚跑步2.926'35"15419min2024-04-06 19:06:44
午间跑步8.026'05"14548min2024-04-04 12:26:09
午后跑步8.325'55"14649min2024-04-01 18:11:44
午后跑步8.216'01"14449min2024-03-29 18:15:50
午后跑步5.026'17"16431min2024-03-28 18:06:09
午后跑步8.345'48"15748min2024-03-25 18:18:47
午后跑步8.125'31"16044min2024-03-22 18:19:32
午后跑步8.265'46"15847min2024-03-20 18:23:19
午后跑步5.035'51"18029min2024-03-19 18:14:32
午后跑步8.325'43"15547min2024-03-18 18:21:12
傍晚跑步3.075'50"17117min2024-03-17 20:51:27
傍晚跑步2.126'06"15812min2024-03-16 21:33:59
午后跑步8.355'27"15645min2024-03-13 18:14:05
午后跑步5.035'51"15829min2024-03-12 18:06:49
午后跑步8.215'41"14946min2024-03-11 18:15:24
清晨跑步10.085'48"17758min2024-03-10 07:14:02
午后跑步8.275'54"15448min2024-03-08 18:13:45
夜晚跑步2.136'41"16114min2024-03-07 22:54:54
午后跑步8.425'25"18345min2024-03-04 18:10:55
午后跑步8.105'58"15348min2024-03-03 17:05:17
午后跑步8.275'55"16249min2024-03-01 17:58:10
午后跑步8.275'50"15748min2024-02-28 18:16:00
午后跑步8.395'42"16247min2024-02-26 17:53:27
傍晚跑步1.096'12"1716min2024-02-25 20:33:21
午后跑步8.235'46"14947min2024-02-23 18:15:05
午后跑步8.175'34"16045min2024-02-22 18:11:25
午后跑步8.375'58"14949min2024-02-19 17:54:25
半程马拉松21.135'45"169121min2024-02-14 14:08:31
午后跑步8.235'25"16044min2024-02-07 17:48:21
午后跑步8.405'26"15945min2024-02-05 18:01:17
午后跑步8.315'37"15346min2024-02-02 17:45:35
午后跑步8.285'44"16547min2024-01-31 17:48:37
傍晚跑步2.027'04"15414min2024-01-29 20:14:41
清晨跑步6.495'33"17236min2024-01-28 07:46:11
午后跑步8.295'53"15648min2024-01-22 17:52:43
午后跑步8.325'41"16847min2024-01-21 17:03:52
午后跑步8.405'56"49min2024-01-19 17:49:51
午后跑步8.355'47"16248min2024-01-15 17:49:32
午后跑步8.325'53"16548min2024-01-14 17:26:51
午后跑步8.315'37"15846min2024-01-10 17:54:29
午后跑步8.366'04"15150min2024-01-08 17:59:52
清晨跑步8.435'28"16546min2024-01-06 06:35:48
午后跑步8.325'59"15249min2024-01-05 17:56:47
午后跑步8.375'45"16248min2024-01-03 17:52:37
午后跑步10.046'11"15762min2024-01-01 15:07:36